• Join FlightAware (Why Join?)
  • Login
  • US Flag 
Trick or treat! (Boo!!) 
04:45AM EDT


 

Airport Tracker/Info


-or-


 

Live Flight TrackerFlight Track Log ✈ SWA127 ✈ 07-May-2013 ✈ KHOU - KHRL

Flight Track Log - Related Links

Times and Time Zones

All times are in EDT time to prevent confusion due to time zone crossing. See the SWA127 flight status page for this flight to view local times or setup timezone preferences in your user account.

Time Position Orientation Groundspeed Altitude Reporting Facility
EDT Latitude Longitude Course Direction KTS MPH feet Rate Location/Type
11:41AM 29.6308 -95.2633 175° South 154 177 800  Level Houston Center
11:42AM 29.5775 -95.2581 175° South 203 234 2,900 1,920 Climbing Houston Center
11:43AM 29.5133 -95.2703 189° South 245 282 4,900 2,580 Climbing Houston Center
11:44AM 29.4392 -95.3022 201° Southwest 284 327 8,300 3,000 Climbing Houston Center
11:45AM 29.3475 -95.3417 201° Southwest 295 339 11,100 2,580 Climbing Houston Center
11:46AM 29.2525 -95.3822 200° South 359 413 13,700 2,760 Climbing Houston Center
11:47AM 29.1642 -95.4369 208° Southwest 363 418 16,900 2,700 Climbing Houston Center
11:48AM 29.0819 -95.5031 215° Southwest 361 415 19,300 2,040 Climbing Houston Center
11:49AM 28.9947 -95.5731 215° Southwest 380 437 21,200 2,100 Climbing Houston Center
11:50AM 28.9056 -95.6450 215° Southwest 391 450 23,700 2,220 Climbing Houston Center
11:51AM 28.7961 -95.7311 215° Southwest 397 457 25,900 1,980 Climbing Houston Center
11:52AM 28.7039 -95.8058 215° Southwest 405 466 27,800 1,560 Climbing Houston Center
11:53AM 28.6086 -95.8800 214° Southwest 412 474 29,200 1,380 Climbing Houston Center
11:54AM 28.5053 -95.9617 215° Southwest 423 487 30,700 1,500 Climbing Houston Center
11:55AM 28.4083 -96.0389 215° Southwest 424 488 32,400 1,500 Climbing Houston Center
11:56AM 28.3125 -96.1139 215° Southwest 418 481 33,900 1,380 Climbing Houston Center
11:57AM 28.2183 -96.1889 215° Southwest 414 476 35,300 960 Climbing Houston Center
11:58AM 28.1239 -96.2631 215° Southwest 413 475 36,000 300 Climbing Houston Center
11:59AM 28.0081 -96.3522 214° Southwest 420 483 36,000  Level Houston Center
12:00PM 27.9136 -96.4269 215° Southwest 415 478 36,000  Level Houston Center
12:01PM 27.8203 -96.4989 214° Southwest 410 472 36,000 -60 Level Houston Center
12:02PM 27.7272 -96.5717 215° Southwest 407 468 35,900 -540 Descending Houston Center
12:03PM 27.6339 -96.6428 214° Southwest 406 467 34,900 -1,740 Descending Houston Center
12:04PM 27.5428 -96.7142 215° Southwest 401 461 32,300 -2,940 Descending Houston Center
12:05PM 27.4344 -96.7986 215° Southwest 395 455 28,900 -3,000 Descending Houston Center
12:06PM 27.3481 -96.8642 214° Southwest 395 455 26,100 -2,760 Descending Houston Center
12:08PM 27.2583 -96.9331 214° Southwest 393 452 23,200 -2,580 Descending Houston Center
12:09PM 27.1689 -97.0011 214° Southwest 390 449 20,800 -2,220 Descending Houston Center
12:09PM 27.0778 -97.0706 214° Southwest 378 435 19,000 -2,340 Descending Houston Center
12:11PM 26.9769 -97.1481 214° Southwest 373 429 16,200 -1,980 Descending Houston Center
12:12PM 26.8994 -97.2083 215° Southwest 318 366 14,800 -1,920 Descending Houston Center
12:13PM 26.8236 -97.2656 214° Southwest 334 384 12,300 -2,160 Descending Houston Center
12:14PM 26.7461 -97.3256 215° Southwest 340 391 10,500 -1,560 Descending Houston Center
12:15PM 26.6742 -97.3800 214° Southwest 304 350 9,200 -1,500 Descending Houston Center
12:16PM 26.5925 -97.4400 213° Southwest 292 336 7,300 -1,500 Descending Houston Center
12:17PM 26.5383 -97.4828 215° Southwest 281 323 6,200 -1,500 Descending Houston Center
12:18PM 26.4758 -97.5286 213° Southwest 262 302 4,500 -1,800 Descending Houston Center
12:19PM 26.4214 -97.5689 214° Southwest 255 293 2,800 -1,740 Descending Houston Center
12:19PM 26.4047 -97.5828 217° Southwest 258 297 2,400 -840 Descending Houston Center
12:20PM 26.3592 -97.6169 214° Southwest 251 289 1,900 -540 Descending Houston Center
12:21PM 26.3164 -97.6483 213° Southwest 201 231 1,500 -600 Descending Houston Center
12:21PM 26.2986 -97.6586 207° Southwest 201 231 1,200 -840 Descending Houston Center
12:22PM 26.2733 -97.6586 180° South 136 157 700 -780 Descending Houston Center
12:22PM 26.2594 -97.6583 179° South 144 166 400 -780 Descending Houston Center
12:25PM 26.2271 -97.6551 214° Southwest  Level Estimated